Aérodrome de Lacave le Frau

FR-0394 · Lot, Occitanie, Francja

Historia METAR FR-0394 · Aérodrome de Lacave le Frau

Poniżej widzisz METAR-y z ostatnich kilku dni. Wybierz rok, aby przeglądać starsze METAR-y, począwszy od roku 2007.

14 czerwca 2024

Czas Kod Pogoda Temp. Widoczność Sufit Wiatr METAR/SPECI
10:00
M
15 °C 5 km 4.100 ft 170° 170° 4 kt METAR LFSL 140800Z AUTO 17004KT 140V200 5000 RA BR FEW028/// SCT034/// BKN041/// //////CB 15/14 Q1015 TEMPO 2000 RA BKN004 OVC010
09:30
M
14 °C 5 km 3.800 ft 170° 170° 4 kt METAR LFSL 140730Z AUTO 17004KT 130V200 5000 RA BR SCT012/// SCT029/// OVC038/// ///CB 14/13 Q1015 TEMPO 2000 RA BKN004 OVC010
09:00
I
15 °C 2,4 km 1.200 ft 190° 190° 4 kt METAR LFSL 140700Z AUTO 19004KT 140V240 7000 2400 RA BKN012/// BKN018/// BKN030/// ///CB 15/13 Q1015 TEMPO 2000 RA BKN004 OVC010
08:30
M
15 °C 9 km 2.000 ft 170° 170° 5 kt METAR LFSL 140630Z AUTO 17005KT 130V200 9000 -RA SCT012/// BKN020/// BKN041/// ///CB 15/13 Q1014 TEMPO 2000 RA BKN004 OVC010
08:00
V
15 °C 10 km+ 5.200 ft 160° 160° 4 kt METAR LFSL 140600Z AUTO 16004KT 130V190 9999 -RA SCT014/// SCT039/// BKN052/// //////TCU 15/12 Q1014 TEMPO 2000 RA BKN004 OVC010
07:30
V
15 °C 10 km+ 7.400 ft 170° 170° 4 kt METAR LFSL 140530Z AUTO 17004KT 130V210 9999 FEW016/// SCT054/// BKN074/// ///TCU 15/12 Q1014 TEMPO 3000 -RA BKN005 BKN010
07:00
V
15 °C 10 km+ - 150° 150° 4 kt METAR LFSL 140500Z AUTO 15004KT 120V190 CAVOK 15/12 Q1014 TEMPO 3000 -RA BKN005 BKN010
06:30
V
15 °C 10 km+ - 150° 150° 5 kt METAR LFSL 140430Z AUTO 15005KT 110V190 CAVOK 15/12 Q1014 TEMPO 3000 -RA BKN005 BKN010
06:00
V
15 °C 10 km+ - 140° 140° 5 kt METAR LFSL 140400Z AUTO 14005KT CAVOK 15/11 Q1014 TEMPO 3000 -RA BKN005 BKN010
05:30
V
15 °C 10 km+ - 130° 130° 4 kt METAR LFSL 140330Z AUTO 13004KT 110V170 CAVOK 15/11 Q1014 TEMPO 3000 -RA BKN005 BKN010
05:00
V
16 °C 10 km+ - 150° 150° 3 kt METAR LFSL 140300Z AUTO 15003KT CAVOK 16/12 Q1014
04:30
V
16 °C 10 km+ 5.400 ft Var Var 2 kt METAR LFSL 140230Z AUTO VRB02KT 9999 FEW012 OVC054 16/12 Q1014
04:00
V
16 °C 10 km+ 5.800 ft 220° 220° 4 kt METAR LFSL 140200Z AUTO 22004KT 190V260 9999 SCT014 OVC058 16/11 Q1015
03:30
V
16 °C 10 km+ - Var Var 3 kt METAR LFSL 140130Z AUTO VRB03KT CAVOK 16/10 Q1015
03:00
V
16 °C 10 km+ - Var Var 2 kt METAR LFSL 140100Z AUTO VRB02KT CAVOK 16/10 Q1015
02:30
V
16 °C 10 km+ - Var Var 3 kt METAR LFSL 140030Z AUTO VRB03KT CAVOK 16/09 Q1015
02:00
V
17 °C 10 km+ - Var Var 3 kt METAR LFSL 140000Z AUTO VRB03KT CAVOK 17/09 Q1016
01:30
V
17 °C 10 km+ - 280° 280° 6 kt METAR LFSL 132330Z AUTO 28006KT 250V310 CAVOK 17/09 Q1016
01:00
V
18 °C 10 km+ - 270° 270° 7 kt METAR LFSL 132300Z AUTO 27007KT 230V310 CAVOK 18/08 Q1016
00:30
V
17 °C 10 km+ - Var Var 3 kt METAR LFSL 132230Z AUTO VRB03KT CAVOK 17/08 Q1016
00:00
V
17 °C 10 km+ - 150° 150° 4 kt METAR LFSL 132200Z AUTO 15004KT CAVOK 17/08 Q1016

13 czerwca 2024

Czas Kod Pogoda Temp. Widoczność Sufit Wiatr METAR/SPECI
23:30
V
17 °C 10 km+ - 140° 140° 4 kt METAR LFSL 132130Z AUTO 14004KT 100V180 9999 //////TCU 17/09 Q1016
23:00
V
17 °C 10 km+ - 160° 160° 3 kt METAR LFSL 132100Z AUTO 16003KT 9999 //////TCU 17/10 Q1016
22:30
V
18 °C 10 km+ - Var Var 2 kt METAR LFSL 132030Z AUTO VRB02KT 9999 -RA //////TCU 18/10 Q1016
22:00
V
18 °C 10 km+ - Var Var 2 kt METAR LFSL 132000Z AUTO VRB02KT 9999 ///TCU 18/07 Q1016 BECMG NSC
21:30
V
19 °C 10 km+ - 150° 150° 2 kt METAR LFSL 131930Z AUTO 15002KT 9999 //////TCU 19/08 Q1016 BECMG 23010KT NSC
21:00
V
20 °C 10 km+ - Var Var 2 kt METAR LFSL 131900Z AUTO VRB02KT CAVOK 20/07 Q1016 NOSIG
20:30
V
20 °C 10 km+ - Var Var 3 kt METAR LFSL 131830Z AUTO VRB03KT CAVOK 20/05 Q1016 NOSIG
20:00
V
21 °C 10 km+ - 230° 230° 6 kt METAR LFSL 131800Z AUTO 23006KT 200V270 CAVOK 21/05 Q1016 NOSIG
19:30
V
21 °C 10 km+ - 220° 220° 6 kt METAR LFSL 131730Z AUTO 22006KT 170V260 CAVOK 21/05 Q1016 NOSIG
19:00
V
22 °C 10 km+ - 220° 220° 6 kt METAR LFSL 131700Z AUTO 22006KT 180V280 CAVOK 22/06 Q1016 NOSIG
18:00
V
22 °C 10 km+ - 220° 220° 5 kt METAR LFSL 131600Z AUTO 22005KT 150V290 CAVOK 22/06 Q1016 NOSIG
17:30
V
22 °C 10 km+ - 220° 220° 6 kt METAR LFSL 131530Z AUTO 22006KT 160V270 CAVOK 22/06 Q1016 NOSIG
17:00
V
23 °C 10 km+ - 200° 200° 5 kt METAR LFSL 131500Z AUTO 20005KT 130V260 CAVOK 23/06 Q1016 NOSIG
16:30
V
23 °C 10 km+ - 210° 210° 8 kt METAR LFSL 131430Z AUTO 21008KT 160V270 CAVOK 23/05 Q1016 NOSIG
16:00
V
22 °C 10 km+ - 220° 220° 7 kt METAR LFSL 131400Z AUTO 22007KT 150V300 CAVOK 22/05 Q1017 NOSIG
15:30
V
22 °C 10 km+ - 190° 190° 5 kt METAR LFSL 131330Z AUTO 19005KT 110V260 CAVOK 22/06 Q1017 NOSIG
15:00
V
22 °C 10 km+ - Var Var 5 kt METAR LFSL 131300Z AUTO VRB05KT CAVOK 22/06 Q1017 NOSIG
14:30
V
22 °C 10 km+ - 250° 250° 6 kt METAR LFSL 131230Z AUTO 25006KT 170V340 CAVOK 22/06 Q1018 NOSIG
14:00
V
21 °C 10 km+ - 230° 230° 6 kt METAR LFSL 131200Z AUTO 23006KT 150V300 CAVOK 21/04 Q1018 NOSIG
13:30
V
21 °C 10 km+ - 160° 160° 6 kt METAR LFSL 131130Z AUTO 16006KT 090V250 CAVOK 21/05 Q1018 NOSIG
13:00
V
20 °C 10 km+ - 220° 220° 6 kt METAR LFSL 131100Z AUTO 22006KT 140V290 CAVOK 20/06 Q1019 NOSIG
12:30
V
20 °C 10 km+ - 190° 190° 8 kt METAR LFSL 131030Z AUTO 19008KT 140V230 CAVOK 20/06 Q1019 NOSIG
12:00
V
19 °C 10 km+ - 120° 120° 5 kt METAR LFSL 131000Z AUTO 12005KT 080V210 9999 FEW047 19/05 Q1019 NOSIG
11:30
V
18 °C 10 km+ - 140° 140° 6 kt METAR LFSL 130930Z AUTO 14006KT 090V220 CAVOK 18/05 Q1019 NOSIG
11:00
V
18 °C 10 km+ - 180° 180° 6 kt METAR LFSL 130900Z AUTO 18006KT 130V250 CAVOK 18/06 Q1019 NOSIG
10:30
V
17 °C 10 km+ - 140° 140° 4 kt METAR LFSL 130830Z AUTO 14004KT 100V210 CAVOK 17/07 Q1020 NOSIG
10:00
V
16 °C 10 km+ - 130° 130° 5 kt METAR LFSL 130800Z AUTO 13005KT 080V180 CAVOK 16/07 Q1020 NOSIG
09:30
V
15 °C 10 km+ - 110° 110° 5 kt METAR LFSL 130730Z AUTO 11005KT 080V170 CAVOK 15/07 Q1020 NOSIG
09:00
V
14 °C 10 km+ - 100° 100° 6 kt METAR LFSL 130700Z AUTO 10006KT CAVOK 14/07 Q1020 NOSIG
08:30
V
12 °C 10 km+ - 110° 110° 6 kt METAR LFSL 130630Z AUTO 11006KT CAVOK 12/06 Q1020 NOSIG
08:00
V
11 °C 10 km+ - 110° 110° 4 kt METAR LFSL 130600Z AUTO 11004KT CAVOK 11/06 Q1020 NOSIG
07:30
V
9 °C 10 km+ - 110° 110° 3 kt METAR LFSL 130530Z AUTO 11003KT CAVOK 09/06 Q1020 NOSIG
07:00
V
7 °C 10 km+ - Var Var 1 kt METAR LFSL 130500Z AUTO VRB01KT CAVOK 07/05 Q1020 NOSIG
06:30
V
6 °C 10 km+ - 360° 360° 0 kt METAR LFSL 130430Z AUTO 00000KT CAVOK 06/04 Q1020 NOSIG
06:00
V
6 °C 10 km+ - 360° 360° 0 kt METAR LFSL 130400Z AUTO 00000KT CAVOK 06/04 Q1020 NOSIG
05:30
V
6 °C 10 km+ - 360° 360° 0 kt METAR LFSL 130330Z AUTO 00000KT CAVOK 06/04 Q1020 NOSIG
05:00
V
6 °C 10 km+ - 360° 360° 0 kt METAR LFSL 130300Z AUTO 00000KT CAVOK 06/04 Q1020 NOSIG
04:30
V
7 °C 10 km+ - 360° 360° 0 kt METAR LFSL 130230Z AUTO 00000KT CAVOK 07/05 Q1020
04:00
V
7 °C 10 km+ - 360° 360° 0 kt METAR LFSL 130200Z AUTO 00000KT CAVOK 07/05 Q1020
03:30
V
8 °C 10 km+ - 360° 360° 0 kt METAR LFSL 130130Z AUTO 00000KT CAVOK 08/05 Q1020
03:00
V
8 °C 10 km+ - 360° 360° 0 kt METAR LFSL 130100Z AUTO 00000KT CAVOK 08/05 Q1020
02:30
V
8 °C 10 km+ - 240° 240° 1 kt METAR LFSL 130030Z AUTO 24001KT CAVOK 08/06 Q1020
02:00
V
9 °C 10 km+ - Var Var 1 kt METAR LFSL 130000Z AUTO VRB01KT CAVOK 09/06 Q1020
01:30
V
10 °C 10 km+ - Var Var 2 kt METAR LFSL 122330Z AUTO VRB02KT CAVOK 10/06 Q1020
01:00
V
10 °C 10 km+ - 290° 290° 1 kt METAR LFSL 122300Z AUTO 29001KT CAVOK 10/06 Q1021
00:30
V
11 °C 10 km+ - Var Var 2 kt METAR LFSL 122230Z AUTO VRB02KT CAVOK 11/06 Q1021
00:00
V
11 °C 10 km+ - 360° 360° 0 kt METAR LFSL 122200Z AUTO 00000KT CAVOK 11/06 Q1021

12 czerwca 2024

Czas Kod Pogoda Temp. Widoczność Sufit Wiatr METAR/SPECI
23:30
V
13 °C 10 km+ - Var Var 2 kt METAR LFSL 122130Z AUTO VRB02KT CAVOK 13/06 Q1020
23:00
V
14 °C 10 km+ - 360° 360° 4 kt METAR LFSL 122100Z AUTO 36004KT CAVOK 14/06 Q1020
22:30
V
16 °C 10 km+ - 330° 330° 5 kt METAR LFSL 122030Z AUTO 33005KT CAVOK 16/06 Q1020
22:00
V
16 °C 10 km+ - 320° 320° 5 kt METAR LFSL 122000Z AUTO 32005KT CAVOK 16/06 Q1020 NOSIG
21:30
V
16 °C 10 km+ - 320° 320° 5 kt METAR LFSL 121930Z AUTO 32005KT CAVOK 16/06 Q1019 NOSIG
21:00
V
16 °C 10 km+ - 320° 320° 5 kt METAR LFSL 121900Z AUTO 32005KT CAVOK 16/06 Q1019 NOSIG
20:30
V
17 °C 10 km+ - 290° 290° 5 kt METAR LFSL 121830Z AUTO 29005KT 250V320 CAVOK 17/06 Q1019 NOSIG
20:00
V
19 °C 10 km+ - 320° 320° 9 kt METAR LFSL 121800Z AUTO 32009KT CAVOK 19/05 Q1019 NOSIG
19:30
V
20 °C 10 km+ - 310° 310° 6 kt METAR LFSL 121730Z AUTO 31006KT 260V340 CAVOK 20/06 Q1019 NOSIG
19:00
V
19 °C 10 km+ - 310° 310° 8 kt METAR LFSL 121700Z AUTO 31008KT CAVOK 19/06 Q1019 NOSIG
18:30
V
20 °C 10 km+ - 320° 320° 12 kt METAR LFSL 121630Z AUTO 32012KT 290V350 CAVOK 20/06 Q1018 NOSIG
18:00
V
20 °C 10 km+ - 330° 330° 12 kt METAR LFSL 121600Z AUTO 33012KT 300V030 CAVOK 20/04 Q1018 NOSIG
17:30
V
20 °C 10 km+ - 330° 330° 12 kt METAR LFSL 121530Z AUTO 33012KT 300V360 CAVOK 20/05 Q1019 NOSIG
17:00
V
21 °C 10 km+ - 310° 310° 11 kt METAR LFSL 121500Z AUTO 31011KT 260V340 CAVOK 21/04 Q1018 NOSIG
16:30
V
21 °C 10 km+ - 340° 340° 10 kt METAR LFSL 121430Z AUTO 34010KT 300V020 CAVOK 21/04 Q1019 NOSIG
16:00
V
20 °C 10 km+ - 340° 340° 14 kt METAR LFSL 121400Z AUTO 34014KT CAVOK 20/05 Q1019 NOSIG
15:30
V
21 °C 10 km+ - 330° 330° 11 kt METAR LFSL 121330Z AUTO 33011KT 290V350 CAVOK 21/04 Q1019 NOSIG
15:00
V
21 °C 10 km+ - 310° 310° 8 kt METAR LFSL 121300Z AUTO 31008KT 250V340 CAVOK 21/03 Q1019 NOSIG
14:30
V
20 °C 10 km+ - 310° 310° 11 kt METAR LFSL 121230Z AUTO 31011KT 260V340 CAVOK 20/05 Q1019 NOSIG
14:00
V
19 °C 10 km+ - 320° 320° 8 kt METAR LFSL 121200Z AUTO 32008KT 260V040 CAVOK 19/03 Q1019 NOSIG
13:30
V
18 °C 10 km+ - 320° 320° 8 kt METAR LFSL 121130Z AUTO 32008KT 300V360 CAVOK 18/05 Q1020 NOSIG
13:00
V
18 °C 10 km+ - 330° 330° 10 kt METAR LFSL 121100Z AUTO 33010KT 300V360 CAVOK 18/04 Q1020 NOSIG
12:30
V
19 °C 10 km+ - 330° 330° 7 kt METAR LFSL 121030Z AUTO 33007KT 250V040 CAVOK 19/06 Q1019 NOSIG
12:00
V
19 °C 10 km+ - 320° 320° 9 kt METAR LFSL 121000Z AUTO 32009KT 280V360 CAVOK 19/05 Q1020 NOSIG
11:30
V
18 °C 10 km+ - 340° 340° 7 kt METAR LFSL 120930Z AUTO 34007KT 290V070 CAVOK 18/05 Q1020 NOSIG
11:00
V
18 °C 10 km+ - 050° 050° 7 kt METAR LFSL 120900Z AUTO 05007KT CAVOK 18/04 Q1020 BECMG 34010KT
10:30
V
18 °C 10 km+ - 040° 040° 3 kt METAR LFSL 120830Z AUTO 04003KT 310V080 CAVOK 18/07 Q1020 NOSIG
10:00
V
17 °C 10 km+ - 070° 070° 4 kt METAR LFSL 120800Z AUTO 07004KT 340V140 CAVOK 17/07 Q1020 NOSIG
09:30
V
16 °C 10 km+ - Var Var 3 kt METAR LFSL 120730Z AUTO VRB03KT CAVOK 16/06 Q1020 NOSIG
09:00
V
15 °C 10 km+ - Var Var 2 kt METAR LFSL 120700Z AUTO VRB02KT CAVOK 15/06 Q1020 NOSIG
08:30
V
14 °C 10 km+ - Var Var 3 kt METAR LFSL 120630Z AUTO VRB03KT CAVOK 14/06 Q1019 NOSIG
08:00
V
12 °C 10 km+ - Var Var 2 kt METAR LFSL 120600Z AUTO VRB02KT CAVOK 12/06 Q1019 NOSIG
Zgłoś zmianę